createdAt,value
2022-12-18T00:01:41.560Z,-3.49
2022-12-18T00:04:42.291Z,-3.53
2022-12-18T00:07:22.294Z,-3.55
2022-12-18T00:10:04.268Z,-3.55
2022-12-18T00:20:14.274Z,-3.64
2022-12-18T00:23:17.029Z,-3.68
2022-12-18T00:27:08.900Z,-3.70
2022-12-18T00:30:04.802Z,-3.74
2022-12-18T00:36:07.864Z,-3.76
2022-12-18T00:39:15.315Z,-3.78
2022-12-18T00:42:14.750Z,-3.81
2022-12-18T00:44:52.447Z,-3.83
2022-12-18T00:47:23.182Z,-3.84
2022-12-18T00:49:59.977Z,-3.87
2022-12-18T00:52:34.703Z,-3.88
2022-12-18T00:55:25.351Z,-3.93
2022-12-18T00:58:12.497Z,-3.94
2022-12-18T01:00:54.735Z,-3.95
2022-12-18T01:06:14.949Z,-4.01
2022-12-18T01:08:45.476Z,-4.01
2022-12-18T01:11:19.659Z,-4.04
2022-12-18T01:13:47.734Z,-4.04
2022-12-18T01:16:18.381Z,-4.04
2022-12-18T01:18:48.355Z,-4.05
2022-12-18T01:21:17.545Z,-4.08
2022-12-18T01:23:47.234Z,-4.09
2022-12-18T01:26:23.579Z,-4.12
2022-12-18T01:28:58.462Z,-4.15
2022-12-18T01:31:33.115Z,-4.17
2022-12-18T01:34:03.545Z,-4.19
2022-12-18T01:36:34.283Z,-4.20
2022-12-18T01:39:06.347Z,-4.26
2022-12-18T01:41:53.854Z,-4.29
2022-12-18T01:44:56.866Z,-4.32
2022-12-18T01:48:00.950Z,-4.35
2022-12-18T01:50:43.146Z,-4.37
2022-12-18T01:53:21.853Z,-4.41
2022-12-18T01:55:57.107Z,-4.43
2022-12-18T01:59:02.540Z,-4.48
2022-12-18T02:01:32.486Z,-4.50
2022-12-18T02:04:21.450Z,-4.52
2022-12-18T02:07:06.748Z,-4.54
2022-12-18T02:10:04.982Z,-4.56
2022-12-18T02:13:14.830Z,-4.57
2022-12-18T02:16:02.202Z,-4.59
2022-12-18T02:18:36.227Z,-4.62
2022-12-18T02:21:29.814Z,-4.65
2022-12-18T02:24:36.122Z,-4.67
2022-12-18T02:27:08.205Z,-4.70
2022-12-18T02:29:58.907Z,-4.72
2022-12-18T02:32:34.829Z,-4.72
2022-12-18T02:35:05.473Z,-4.74
2022-12-18T02:37:35.947Z,-4.73
2022-12-18T02:40:05.858Z,-4.75
2022-12-18T02:42:34.050Z,-4.77
2022-12-18T02:45:01.149Z,-4.76
2022-12-18T02:47:38.196Z,-4.81
2022-12-18T02:50:39.016Z,-4.79
2022-12-18T02:53:38.488Z,-4.83
2022-12-18T02:56:22.575Z,-4.84
2022-12-18T02:59:13.773Z,-4.86
2022-12-18T03:01:55.912Z,-4.86
2022-12-18T03:04:51.158Z,-4.88
2022-12-18T03:07:27.107Z,-4.92
2022-12-18T03:09:55.545Z,-4.93
2022-12-18T03:12:39.730Z,-4.94
2022-12-18T03:15:19.728Z,-4.97
2022-12-18T03:18:12.886Z,-4.96
2022-12-18T03:20:43.468Z,-4.98
2022-12-18T03:23:16.784Z,-5.02
2022-12-18T03:25:47.495Z,-5.00
2022-12-18T03:28:20.689Z,-5.02
2022-12-18T03:30:52.807Z,-5.02
2022-12-18T03:33:37.070Z,-5.03
2022-12-18T03:36:05.107Z,-5.02
2022-12-18T03:38:32.185Z,-5.04
2022-12-18T03:41:26.837Z,-5.05
2022-12-18T03:44:02.400Z,-5.17
2022-12-18T03:46:59.171Z,-5.12
2022-12-18T03:50:38.374Z,-5.14
2022-12-18T03:53:45.016Z,-5.17
2022-12-18T03:56:15.700Z,-5.19
2022-12-18T03:58:44.436Z,-5.18
2022-12-18T04:01:15.834Z,-5.18
2022-12-18T04:03:45.838Z,-5.19
2022-12-18T04:06:14.775Z,-5.20
2022-12-18T04:08:42.906Z,-5.21
2022-12-18T04:11:10.243Z,-5.21
2022-12-18T04:13:39.879Z,-5.20
2022-12-18T04:16:08.058Z,-5.21
2022-12-18T04:18:35.442Z,-5.22
2022-12-18T04:21:03.614Z,-5.23
2022-12-18T04:23:30.648Z,-5.23
2022-12-18T04:25:57.868Z,-5.24
2022-12-18T04:28:24.911Z,-5.24
2022-12-18T04:30:51.986Z,-5.25
2022-12-18T04:33:19.239Z,-5.24
2022-12-18T04:35:46.789Z,-5.24
2022-12-18T04:38:13.782Z,-5.25
2022-12-18T04:40:41.143Z,-5.24
2022-12-18T04:43:09.170Z,-5.25
2022-12-18T04:45:36.585Z,-5.24
2022-12-18T04:48:05.239Z,-5.25
2022-12-18T04:50:32.386Z,-5.25
2022-12-18T04:52:59.434Z,-5.23
2022-12-18T04:55:26.949Z,-5.26
2022-12-18T04:57:54.295Z,-5.25
2022-12-18T05:00:21.855Z,-5.24
2022-12-18T05:02:48.983Z,-5.26
2022-12-18T05:05:16.338Z,-5.26
2022-12-18T05:07:43.419Z,-5.28
2022-12-18T05:10:10.726Z,-5.29
2022-12-18T05:12:59.069Z,-5.30
2022-12-18T05:15:33.115Z,-5.34
2022-12-18T05:18:01.290Z,-5.35
2022-12-18T05:20:29.478Z,-5.35
2022-12-18T05:22:57.159Z,-5.36
2022-12-18T05:25:25.119Z,-5.36
2022-12-18T05:27:52.096Z,-5.37
2022-12-18T05:30:19.198Z,-5.40
2022-12-18T05:32:46.212Z,-5.39
2022-12-18T05:35:13.356Z,-5.39
2022-12-18T05:37:43.248Z,-5.39
2022-12-18T05:40:11.793Z,-5.39
2022-12-18T05:42:38.995Z,-5.40
2022-12-18T05:45:07.229Z,-5.41
2022-12-18T05:47:34.443Z,-5.41
2022-12-18T05:50:01.518Z,-5.41
2022-12-18T05:52:28.510Z,-5.43
2022-12-18T05:54:55.558Z,-5.43
2022-12-18T05:57:22.622Z,-5.45
2022-12-18T05:59:49.854Z,-5.46
2022-12-18T06:02:16.991Z,-5.46
2022-12-18T06:04:44.014Z,-5.48
2022-12-18T06:07:11.162Z,-5.48
2022-12-18T06:09:38.147Z,-5.50
2022-12-18T06:12:05.616Z,-5.49
2022-12-18T06:14:32.703Z,-5.51
2022-12-18T06:16:59.722Z,-5.51
2022-12-18T06:19:26.684Z,-5.51
2022-12-18T06:21:54.213Z,-5.53
2022-12-18T06:24:21.337Z,-5.53
2022-12-18T06:26:48.373Z,-5.53
2022-12-18T06:29:15.417Z,-5.54
2022-12-18T06:31:42.421Z,-5.58
2022-12-18T06:34:09.539Z,-5.59
2022-12-18T06:36:36.849Z,-5.60
2022-12-18T06:39:04.660Z,-5.62
2022-12-18T06:41:33.755Z,-5.63
2022-12-18T06:44:00.786Z,-5.66
2022-12-18T06:46:28.143Z,-5.68
2022-12-18T06:48:55.196Z,-5.69
2022-12-18T06:51:24.733Z,-5.71
2022-12-18T06:53:52.164Z,-5.71
2022-12-18T06:56:19.244Z,-5.73
2022-12-18T06:58:46.412Z,-5.75
2022-12-18T07:01:14.309Z,-5.76
2022-12-18T07:03:43.009Z,-5.78
2022-12-18T07:06:20.548Z,-5.79
2022-12-18T07:08:49.035Z,-5.83
2022-12-18T07:11:17.684Z,-5.82
2022-12-18T07:13:46.251Z,-5.82
2022-12-18T07:16:24.381Z,-5.83
2022-12-18T07:18:53.385Z,-5.83
2022-12-18T07:21:22.872Z,-5.84
2022-12-18T07:23:50.372Z,-5.83
2022-12-18T07:26:20.816Z,-5.84
2022-12-18T07:28:48.802Z,-5.82
2022-12-18T07:31:21.589Z,-5.80
2022-12-18T07:33:51.080Z,-5.80
2022-12-18T07:36:18.503Z,-5.79
2022-12-18T07:38:49.407Z,-5.76
2022-12-18T07:41:17.111Z,-5.76
2022-12-18T07:43:44.798Z,-5.73
2022-12-18T07:46:16.761Z,-5.68
2022-12-18T07:48:49.369Z,-5.64
2022-12-18T07:51:18.684Z,-5.60
2022-12-18T07:53:46.533Z,-5.56
2022-12-18T07:56:31.878Z,-5.50
2022-12-18T07:59:00.654Z,-5.45
2022-12-18T08:01:28.461Z,-5.39
2022-12-18T08:03:55.964Z,-5.33
2022-12-18T08:06:24.179Z,-5.29
2022-12-18T08:08:57.097Z,-5.24
2022-12-18T08:11:26.644Z,-5.18
2022-12-18T08:13:54.608Z,-5.12
2022-12-18T08:16:24.385Z,-5.05
2022-12-18T08:18:54.215Z,-5.00
2022-12-18T08:21:25.940Z,-4.93
2022-12-18T08:24:03.575Z,-4.85
2022-12-18T08:26:35.064Z,-4.79
2022-12-18T08:29:02.478Z,-4.71
2022-12-18T08:31:43.656Z,-4.67
2022-12-18T08:34:14.523Z,-4.58
2022-12-18T08:36:42.310Z,-4.53
2022-12-18T08:39:15.563Z,-4.45
2022-12-18T08:44:58.642Z,-4.36
2022-12-18T08:47:27.173Z,-4.30
2022-12-18T08:49:54.659Z,-4.23
2022-12-18T08:52:22.162Z,-4.16
2022-12-18T08:54:49.434Z,-4.05
2022-12-18T08:57:17.215Z,-3.96
2022-12-18T08:59:44.441Z,-3.86
2022-12-18T09:02:13.151Z,-3.77
2022-12-18T09:04:40.985Z,-3.66
2022-12-18T09:07:08.376Z,-3.58
2022-12-18T09:09:35.731Z,-3.50
2022-12-18T09:12:03.144Z,-3.43
2022-12-18T09:14:30.467Z,-3.34
2022-12-18T09:17:04.003Z,-3.26
2022-12-18T09:19:34.753Z,-3.16
2022-12-18T09:22:20.644Z,-3.07
2022-12-18T09:25:26.216Z,-2.97
2022-12-18T09:27:57.661Z,-2.92
2022-12-18T09:30:43.191Z,-2.86
2022-12-18T09:33:11.633Z,-2.79
2022-12-18T09:39:15.330Z,-2.65
2022-12-18T09:42:07.863Z,-2.57
2022-12-18T09:44:53.441Z,-2.48
2022-12-18T09:47:48.695Z,-2.37
2022-12-18T09:50:41.019Z,-2.29
2022-12-18T09:53:17.061Z,-2.18
2022-12-18T09:55:48.950Z,-2.10
2022-12-18T09:59:09.889Z,-2.01
2022-12-18T10:01:43.975Z,-1.94
2022-12-18T10:04:11.868Z,-1.87
2022-12-18T10:07:09.063Z,-1.80
2022-12-18T10:10:01.133Z,-1.74
2022-12-18T10:12:40.931Z,-1.68
2022-12-18T10:15:32.299Z,-1.59
2022-12-18T10:18:26.828Z,-1.49
2022-12-18T10:21:04.888Z,-1.41
2022-12-18T10:24:06.240Z,-1.32
2022-12-18T10:26:37.235Z,-1.27
2022-12-18T10:29:16.553Z,-1.17
2022-12-18T10:31:44.818Z,-1.09
2022-12-18T10:34:19.610Z,-0.96
2022-12-18T10:36:52.346Z,-0.89
2022-12-18T10:39:27.713Z,-0.83
2022-12-18T10:42:18.537Z,-0.80
2022-12-18T10:48:45.047Z,-0.72
2022-12-18T10:51:41.699Z,-0.67
2022-12-18T10:54:36.486Z,-0.65
2022-12-18T10:57:42.571Z,-0.57
2022-12-18T11:00:37.040Z,-0.49
2022-12-18T11:03:24.632Z,-0.45
2022-12-18T11:06:08.931Z,-0.38
2022-12-18T11:08:40.378Z,-0.38
2022-12-18T11:11:34.570Z,-0.35
2022-12-18T11:14:29.777Z,-0.30
2022-12-18T11:19:53.314Z,-0.19
2022-12-18T11:22:22.814Z,-0.13
2022-12-18T11:28:21.766Z,-0.03
2022-12-18T11:30:48.852Z,0.00
2022-12-18T11:33:23.011Z,0.04
2022-12-18T11:36:00.150Z,0.11
2022-12-18T11:38:32.887Z,0.17
2022-12-18T11:41:10.857Z,0.24
2022-12-18T11:43:59.806Z,0.31
2022-12-18T11:46:44.626Z,0.38
2022-12-18T11:49:31.141Z,0.45
2022-12-18T11:52:26.292Z,0.52
2022-12-18T11:54:58.006Z,0.59
2022-12-18T11:57:52.518Z,0.60
2022-12-18T12:00:20.863Z,0.59
2022-12-18T12:03:48.329Z,0.67
2022-12-18T12:06:33.113Z,0.68
2022-12-18T12:09:47.503Z,0.69
2022-12-18T12:12:23.685Z,0.66
2022-12-18T12:15:33.675Z,0.64
2022-12-18T12:18:32.656Z,0.66
2022-12-18T12:21:43.170Z,0.68
2022-12-18T12:24:59.651Z,0.73
2022-12-18T12:27:40.960Z,0.81
2022-12-18T12:30:21.256Z,0.86
2022-12-18T12:33:28.340Z,0.90
2022-12-18T12:36:27.171Z,0.92
2022-12-18T12:39:01.306Z,0.91
2022-12-18T12:41:52.876Z,0.92
2022-12-18T12:44:29.394Z,0.93
2022-12-18T12:47:14.169Z,0.96
2022-12-18T12:49:50.239Z,1.00
2022-12-18T12:52:33.518Z,1.04
2022-12-18T12:55:02.963Z,1.04
2022-12-18T12:57:44.029Z,1.07
2022-12-18T13:00:18.865Z,1.06
2022-12-18T13:03:23.403Z,1.06
2022-12-18T13:06:17.709Z,1.01
2022-12-18T13:09:01.741Z,1.00
2022-12-18T13:12:05.811Z,0.97
2022-12-18T13:14:41.531Z,0.94
2022-12-18T13:17:21.526Z,0.91
2022-12-18T13:20:16.635Z,0.88
2022-12-18T13:22:50.479Z,0.86
2022-12-18T13:25:38.318Z,0.84
2022-12-18T13:28:13.710Z,0.84
2022-12-18T13:30:50.316Z,0.80
2022-12-18T13:33:18.365Z,0.78
2022-12-18T13:35:48.434Z,0.77
2022-12-18T13:38:27.455Z,0.77
2022-12-18T13:40:56.903Z,0.77
2022-12-18T13:43:23.934Z,0.79
2022-12-18T13:46:20.290Z,0.83
2022-12-18T13:49:01.048Z,0.86
2022-12-18T13:51:30.940Z,0.88
2022-12-18T13:54:34.793Z,0.88
2022-12-18T13:57:03.556Z,0.89
2022-12-18T13:59:39.963Z,0.90
2022-12-18T14:02:28.850Z,0.90
2022-12-18T14:04:56.536Z,0.90
2022-12-18T14:07:34.601Z,0.91
2022-12-18T14:10:42.255Z,0.90
2022-12-18T14:13:11.384Z,0.89
2022-12-18T14:15:47.075Z,0.88
2022-12-18T14:18:47.262Z,0.88
2022-12-18T14:21:23.276Z,0.86
2022-12-18T14:24:03.560Z,0.85
2022-12-18T14:26:34.135Z,0.83
2022-12-18T14:29:27.590Z,0.83
2022-12-18T14:32:20.754Z,0.80
2022-12-18T14:34:54.789Z,0.77
2022-12-18T14:37:28.172Z,0.73
2022-12-18T14:40:10.611Z,0.71
2022-12-18T14:42:38.979Z,0.69
2022-12-18T14:45:42.300Z,0.68
2022-12-18T14:48:13.085Z,0.66
2022-12-18T14:50:42.135Z,0.66
2022-12-18T14:53:22.300Z,0.67
2022-12-18T14:55:50.030Z,0.65
2022-12-18T14:58:18.717Z,0.65
2022-12-18T15:00:46.289Z,0.64
2022-12-18T15:03:21.406Z,0.62
2022-12-18T15:05:49.404Z,0.62
2022-12-18T15:08:37.778Z,0.59
2022-12-18T15:11:28.408Z,0.58
2022-12-18T15:13:55.710Z,0.54
2022-12-18T15:16:23.327Z,0.51
2022-12-18T15:18:50.864Z,0.52
2022-12-18T15:21:20.924Z,0.50
2022-12-18T15:24:02.133Z,0.49
2022-12-18T15:26:39.230Z,0.47
2022-12-18T15:29:10.127Z,0.46
2022-12-18T15:31:40.577Z,0.45
2022-12-18T15:34:23.746Z,0.44
2022-12-18T15:36:52.474Z,0.44
2022-12-18T15:40:02.788Z,0.45
2022-12-18T15:42:53.873Z,0.45
2022-12-18T15:45:21.364Z,0.46
2022-12-18T15:48:04.042Z,0.44
2022-12-18T15:50:54.210Z,0.43
2022-12-18T15:53:36.383Z,0.44
2022-12-18T15:56:22.391Z,0.45
2022-12-18T15:58:52.636Z,0.46
2022-12-18T16:01:42.144Z,0.45
2022-12-18T16:04:15.453Z,0.43
2022-12-18T16:09:35.732Z,0.43
2022-12-18T16:12:03.496Z,0.43
2022-12-18T16:14:32.638Z,0.45
2022-12-18T16:17:12.289Z,0.47
2022-12-18T16:19:39.927Z,0.47
2022-12-18T16:22:22.004Z,0.46
2022-12-18T16:24:50.348Z,0.47
2022-12-18T16:27:20.837Z,0.46
2022-12-18T16:29:50.545Z,0.47
2022-12-18T16:32:21.152Z,0.47
2022-12-18T16:34:48.888Z,0.50
2022-12-18T16:40:26.204Z,0.48
2022-12-18T16:50:29.933Z,0.47
2022-12-18T16:52:57.112Z,0.48
2022-12-18T16:55:26.964Z,0.48
2022-12-18T17:00:44.746Z,0.49
2022-12-18T17:03:13.319Z,0.51
2022-12-18T17:05:51.516Z,0.49
2022-12-18T17:08:20.251Z,0.51
2022-12-18T17:10:47.433Z,0.49
2022-12-18T17:13:14.487Z,0.50
2022-12-18T17:15:42.190Z,0.53
2022-12-18T17:18:09.330Z,0.53
2022-12-18T17:20:38.565Z,0.55
2022-12-18T17:23:05.673Z,0.58
2022-12-18T17:25:32.772Z,0.59
2022-12-18T17:27:59.900Z,0.59
2022-12-18T17:30:26.956Z,0.62
2022-12-18T17:32:54.209Z,0.62
2022-12-18T17:35:21.894Z,0.63
2022-12-18T17:38:01.163Z,0.65
2022-12-18T17:40:28.395Z,0.67
2022-12-18T17:43:01.319Z,0.68
2022-12-18T17:45:30.195Z,0.71
2022-12-18T17:47:59.957Z,0.70
2022-12-18T17:50:27.371Z,0.74
2022-12-18T17:52:58.522Z,0.77
2022-12-18T17:55:26.753Z,0.77
2022-12-18T17:57:57.140Z,0.81
2022-12-18T18:00:24.224Z,0.81
2022-12-18T18:02:51.417Z,0.81
2022-12-18T18:05:18.635Z,0.82
2022-12-18T18:07:45.741Z,0.82
2022-12-18T18:10:12.987Z,0.83
2022-12-18T18:12:58.780Z,0.83
2022-12-18T18:15:25.865Z,0.83
2022-12-18T18:17:53.041Z,0.85
2022-12-18T18:20:22.789Z,0.87
2022-12-18T18:22:50.495Z,0.89
2022-12-18T18:25:17.922Z,0.88
2022-12-18T18:27:45.724Z,0.89
2022-12-18T18:30:15.000Z,0.92
2022-12-18T18:32:42.272Z,0.92
2022-12-18T18:35:24.561Z,0.91
2022-12-18T18:37:57.653Z,0.92
2022-12-18T18:40:24.733Z,0.94
2022-12-18T18:42:56.593Z,0.94
2022-12-18T18:45:23.640Z,0.96
2022-12-18T18:47:50.715Z,0.97
2022-12-18T18:50:17.692Z,0.99
2022-12-18T18:52:44.909Z,1.00
2022-12-18T18:55:13.679Z,1.04
2022-12-18T18:57:50.909Z,1.05
2022-12-18T19:00:18.310Z,1.06
2022-12-18T19:02:48.300Z,1.07
2022-12-18T19:05:16.253Z,1.10
2022-12-18T19:07:43.464Z,1.10
2022-12-18T19:10:11.284Z,1.13
2022-12-18T19:12:57.110Z,1.13
2022-12-18T19:15:24.127Z,1.16
2022-12-18T19:17:51.468Z,1.16
2022-12-18T19:20:18.818Z,1.18
2022-12-18T19:22:47.956Z,1.17
2022-12-18T19:25:40.478Z,1.16
2022-12-18T19:28:21.758Z,1.17
2022-12-18T19:30:50.513Z,1.17
2022-12-18T19:33:41.566Z,1.11
2022-12-18T19:36:13.534Z,1.09
2022-12-18T19:38:43.010Z,1.08
2022-12-18T19:41:14.793Z,1.08
2022-12-18T19:43:46.062Z,1.06
2022-12-18T19:46:19.448Z,1.07
2022-12-18T19:48:47.968Z,1.06
2022-12-18T19:51:23.131Z,1.05
2022-12-18T19:53:56.422Z,1.04
2022-12-18T19:56:29.284Z,1.04
2022-12-18T19:58:57.083Z,1.04
2022-12-18T20:01:25.869Z,1.04
2022-12-18T20:03:57.462Z,1.03
2022-12-18T20:06:32.425Z,1.01
2022-12-18T20:09:04.400Z,1.02
2022-12-18T20:11:33.686Z,1.02
2022-12-18T20:14:06.693Z,1.02
2022-12-18T20:16:36.340Z,1.04
2022-12-18T20:19:04.862Z,1.05
2022-12-18T20:21:31.945Z,1.07
2022-12-18T20:24:00.226Z,1.09
2022-12-18T20:26:27.678Z,1.06
2022-12-18T20:28:55.613Z,1.08
2022-12-18T20:31:22.988Z,1.10
2022-12-18T20:33:52.019Z,1.13
2022-12-18T20:36:23.463Z,1.14
2022-12-18T20:38:58.175Z,1.13
2022-12-18T20:41:36.047Z,1.16
2022-12-18T20:44:17.738Z,1.18
2022-12-18T20:46:57.265Z,1.21
2022-12-18T20:49:26.355Z,1.21
2022-12-18T20:51:56.411Z,1.22
2022-12-18T20:54:26.725Z,1.21
2022-12-18T20:56:54.107Z,1.22
2022-12-18T20:59:23.347Z,1.22
2022-12-18T21:01:52.221Z,1.25
2022-12-18T21:04:20.617Z,1.27
2022-12-18T21:06:53.346Z,1.28
2022-12-18T21:09:24.848Z,1.26
2022-12-18T21:12:12.387Z,1.24
2022-12-18T21:14:41.564Z,1.23
2022-12-18T21:17:09.231Z,1.23
2022-12-18T21:19:36.454Z,1.23
2022-12-18T21:22:03.884Z,1.25
2022-12-18T21:24:32.720Z,1.27
2022-12-18T21:27:00.225Z,1.28
2022-12-18T21:29:27.476Z,1.28
2022-12-18T21:31:55.015Z,1.30
2022-12-18T21:34:32.976Z,1.31
2022-12-18T21:37:01.376Z,1.33
2022-12-18T21:39:30.486Z,1.33
2022-12-18T21:42:16.871Z,1.36
2022-12-18T21:44:47.134Z,1.37
2022-12-18T21:47:21.314Z,1.38
2022-12-18T21:49:52.807Z,1.40
2022-12-18T21:52:29.801Z,1.42
2022-12-18T21:55:09.090Z,1.43
2022-12-18T21:57:39.355Z,1.44
2022-12-18T22:00:11.182Z,1.45
2022-12-18T22:02:46.042Z,1.46
2022-12-18T22:05:13.227Z,1.42
2022-12-18T22:07:40.507Z,1.45
2022-12-18T22:10:08.232Z,1.46
2022-12-18T22:12:35.826Z,1.47
2022-12-18T22:15:21.115Z,1.47
2022-12-18T22:17:51.169Z,1.47
2022-12-18T22:20:22.197Z,1.48
2022-12-18T22:22:51.706Z,1.48
2022-12-18T22:25:19.129Z,1.50
2022-12-18T22:28:06.118Z,1.50
2022-12-18T22:30:33.461Z,1.52
2022-12-18T22:33:00.751Z,1.53
2022-12-18T22:35:27.890Z,1.51
2022-12-18T22:37:54.914Z,1.54
2022-12-18T22:40:27.113Z,1.57
2022-12-18T22:42:55.965Z,1.56
2022-12-18T22:45:23.837Z,1.56
2022-12-18T22:47:51.725Z,1.58
2022-12-18T22:50:18.864Z,1.57
2022-12-18T22:52:45.847Z,1.57
2022-12-18T22:55:12.857Z,1.57
2022-12-18T22:57:42.079Z,1.58
2022-12-18T23:00:16.899Z,1.60
2022-12-18T23:02:48.072Z,1.61
2022-12-18T23:05:15.197Z,1.62
2022-12-18T23:07:43.626Z,1.66
2022-12-18T23:10:11.174Z,1.68
2022-12-18T23:12:38.299Z,1.70
2022-12-18T23:15:09.654Z,1.71
2022-12-18T23:17:36.723Z,1.72
2022-12-18T23:20:04.845Z,1.73
2022-12-18T23:22:32.058Z,1.73
2022-12-18T23:25:05.485Z,1.76
2022-12-18T23:27:32.615Z,1.75
2022-12-18T23:29:59.706Z,1.77
2022-12-18T23:32:26.812Z,1.76
2022-12-18T23:34:57.153Z,1.76
2022-12-18T23:37:57.014Z,1.77
2022-12-18T23:40:11.939Z,1.79
2022-12-18T23:42:39.010Z,1.79
2022-12-18T23:45:09.394Z,1.79
2022-12-18T23:47:44.954Z,1.83
2022-12-18T23:50:17.100Z,1.83
2022-12-18T23:52:44.405Z,1.84
2022-12-18T23:55:11.436Z,1.83
2022-12-18T23:57:38.642Z,1.84
